sensor_id;sensor_type;location;lat;lon;timestamp;temperature;humidity
23957;DHT22;12165;45.458;11.062;2022-08-21T00:02:23;21.80;99.90
23957;DHT22;12165;45.458;11.062;2022-08-21T00:04:51;22.00;99.90
23957;DHT22;12165;45.458;11.062;2022-08-21T00:07:24;22.10;99.90
23957;DHT22;12165;45.458;11.062;2022-08-21T00:09:52;22.10;99.90
23957;DHT22;12165;45.458;11.062;2022-08-21T00:12:20;22.10;99.90
23957;DHT22;12165;45.458;11.062;2022-08-21T00:14:47;22.10;99.90
23957;DHT22;12165;45.458;11.062;2022-08-21T00:17:14;22.00;99.90
23957;DHT22;12165;45.458;11.062;2022-08-21T00:19:41;22.10;99.90
23957;DHT22;12165;45.458;11.062;2022-08-21T00:22:08;22.30;99.90
23957;DHT22;12165;45.458;11.062;2022-08-21T00:24:35;22.30;99.90
23957;DHT22;12165;45.458;11.062;2022-08-21T00:27:02;22.40;99.90
23957;DHT22;12165;45.458;11.062;2022-08-21T00:29:30;22.50;99.90
23957;DHT22;12165;45.458;11.062;2022-08-21T00:31:57;22.40;99.90
23957;DHT22;12165;45.458;11.062;2022-08-21T00:34:24;22.40;99.90
23957;DHT22;12165;45.458;11.062;2022-08-21T00:36:51;22.40;99.90
23957;DHT22;12165;45.458;11.062;2022-08-21T00:39:18;22.30;99.90
23957;DHT22;12165;45.458;11.062;2022-08-21T00:41:45;22.40;99.90
23957;DHT22;12165;45.458;11.062;2022-08-21T00:44:13;22.30;99.90
23957;DHT22;12165;45.458;11.062;2022-08-21T00:46:41;22.30;99.90
23957;DHT22;12165;45.458;11.062;2022-08-21T00:49:11;22.40;99.90
23957;DHT22;12165;45.458;11.062;2022-08-21T00:51:51;22.30;99.90
23957;DHT22;12165;45.458;11.062;2022-08-21T00:54:22;22.30;99.90
23957;DHT22;12165;45.458;11.062;2022-08-21T00:56:54;22.30;99.90
23957;DHT22;12165;45.458;11.062;2022-08-21T00:59:25;22.30;99.90
23957;DHT22;12165;45.458;11.062;2022-08-21T01:01:53;22.30;99.90
23957;DHT22;12165;45.458;11.062;2022-08-21T01:04:20;22.20;99.90
23957;DHT22;12165;45.458;11.062;2022-08-21T01:06:49;22.20;99.90
23957;DHT22;12165;45.458;11.062;2022-08-21T01:09:18;22.20;99.90
23957;DHT22;12165;45.458;11.062;2022-08-21T01:11:46;22.20;99.90
23957;DHT22;12165;45.458;11.062;2022-08-21T01:14:14;22.10;99.90
23957;DHT22;12165;45.458;11.062;2022-08-21T01:16:44;22.10;99.90
23957;DHT22;12165;45.458;11.062;2022-08-21T01:19:13;22.10;99.90
23957;DHT22;12165;45.458;11.062;2022-08-21T01:21:41;22.00;99.90
23957;DHT22;12165;45.458;11.062;2022-08-21T01:24:10;22.10;99.90
23957;DHT22;12165;45.458;11.062;2022-08-21T01:26:37;22.10;99.90
23957;DHT22;12165;45.458;11.062;2022-08-21T01:31:54;22.10;99.90
23957;DHT22;12165;45.458;11.062;2022-08-21T01:34:20;22.10;99.90
23957;DHT22;12165;45.458;11.062;2022-08-21T01:36:48;22.10;99.90
23957;DHT22;12165;45.458;11.062;2022-08-21T01:39:15;22.10;99.90
23957;DHT22;12165;45.458;11.062;2022-08-21T01:41:43;22.00;99.90
23957;DHT22;12165;45.458;11.062;2022-08-21T01:44:10;22.00;99.90
23957;DHT22;12165;45.458;11.062;2022-08-21T01:46:37;22.00;99.90
23957;DHT22;12165;45.458;11.062;2022-08-21T01:49:05;21.90;99.90
23957;DHT22;12165;45.458;11.062;2022-08-21T01:51:32;22.00;99.90
23957;DHT22;12165;45.458;11.062;2022-08-21T01:53:59;22.00;99.90
23957;DHT22;12165;45.458;11.062;2022-08-21T01:56:26;22.00;99.90
23957;DHT22;12165;45.458;11.062;2022-08-21T01:58:54;22.00;99.90
23957;DHT22;12165;45.458;11.062;2022-08-21T02:01:21;22.00;99.90
23957;DHT22;12165;45.458;11.062;2022-08-21T02:03:48;21.90;99.90
23957;DHT22;12165;45.458;11.062;2022-08-21T02:06:16;21.80;99.90
23957;DHT22;12165;45.458;11.062;2022-08-21T02:08:45;21.90;99.90
23957;DHT22;12165;45.458;11.062;2022-08-21T02:11:13;21.90;99.90
23957;DHT22;12165;45.458;11.062;2022-08-21T02:13:40;21.90;99.90
23957;DHT22;12165;45.458;11.062;2022-08-21T02:16:08;21.80;99.90
23957;DHT22;12165;45.458;11.062;2022-08-21T02:18:35;21.80;99.90
23957;DHT22;12165;45.458;11.062;2022-08-21T02:21:03;21.70;99.90
23957;DHT22;12165;45.458;11.062;2022-08-21T02:23:31;21.70;99.90
23957;DHT22;12165;45.458;11.062;2022-08-21T02:25:59;21.70;99.90
23957;DHT22;12165;45.458;11.062;2022-08-21T02:28:27;21.80;99.90
23957;DHT22;12165;45.458;11.062;2022-08-21T02:30:55;21.70;99.90
23957;DHT22;12165;45.458;11.062;2022-08-21T02:33:23;21.70;99.90
23957;DHT22;12165;45.458;11.062;2022-08-21T02:35:51;21.70;99.90
23957;DHT22;12165;45.458;11.062;2022-08-21T02:38:30;21.70;99.90
23957;DHT22;12165;45.458;11.062;2022-08-21T02:41:00;21.80;99.90
23957;DHT22;12165;45.458;11.062;2022-08-21T02:43:28;21.70;99.90
23957;DHT22;12165;45.458;11.062;2022-08-21T02:45:56;21.70;99.90
23957;DHT22;12165;45.458;11.062;2022-08-21T02:48:26;21.70;99.90
23957;DHT22;12165;45.458;11.062;2022-08-21T02:50:59;21.60;99.90
23957;DHT22;12165;45.458;11.062;2022-08-21T02:53:27;21.60;99.90
23957;DHT22;12165;45.458;11.062;2022-08-21T02:55:57;21.60;99.90
23957;DHT22;12165;45.458;11.062;2022-08-21T02:58:29;21.50;99.90
23957;DHT22;12165;45.458;11.062;2022-08-21T03:00:58;21.60;99.90
23957;DHT22;12165;45.458;11.062;2022-08-21T03:03:26;21.60;99.90
23957;DHT22;12165;45.458;11.062;2022-08-21T03:05:54;21.60;99.90
23957;DHT22;12165;45.458;11.062;2022-08-21T03:08:22;21.60;99.90
23957;DHT22;12165;45.458;11.062;2022-08-21T03:10:53;21.60;99.90
23957;DHT22;12165;45.458;11.062;2022-08-21T03:13:20;21.60;99.90
23957;DHT22;12165;45.458;11.062;2022-08-21T03:15:48;21.60;99.90
23957;DHT22;12165;45.458;11.062;2022-08-21T03:18:16;21.60;99.90
23957;DHT22;12165;45.458;11.062;2022-08-21T03:20:44;21.60;99.90
23957;DHT22;12165;45.458;11.062;2022-08-21T03:23:12;21.60;99.90
23957;DHT22;12165;45.458;11.062;2022-08-21T03:25:43;21.50;99.90
23957;DHT22;12165;45.458;11.062;2022-08-21T03:28:14;21.50;99.90
23957;DHT22;12165;45.458;11.062;2022-08-21T03:30:43;21.40;99.90
23957;DHT22;12165;45.458;11.062;2022-08-21T03:33:10;21.50;99.90
23957;DHT22;12165;45.458;11.062;2022-08-21T03:35:42;21.50;99.90
23957;DHT22;12165;45.458;11.062;2022-08-21T03:38:10;21.50;99.90
23957;DHT22;12165;45.458;11.062;2022-08-21T03:40:40;21.50;99.90
23957;DHT22;12165;45.458;11.062;2022-08-21T03:43:08;21.50;99.90
23957;DHT22;12165;45.458;11.062;2022-08-21T03:45:36;21.50;99.90
23957;DHT22;12165;45.458;11.062;2022-08-21T03:48:06;21.40;99.90
23957;DHT22;12165;45.458;11.062;2022-08-21T03:50:36;21.30;99.90
23957;DHT22;12165;45.458;11.062;2022-08-21T03:53:08;21.30;99.90
23957;DHT22;12165;45.458;11.062;2022-08-21T03:55:46;21.30;99.90
23957;DHT22;12165;45.458;11.062;2022-08-21T03:58:19;21.30;99.90
23957;DHT22;12165;45.458;11.062;2022-08-21T04:00:49;21.30;99.90
23957;DHT22;12165;45.458;11.062;2022-08-21T04:03:17;21.30;99.90
23957;DHT22;12165;45.458;11.062;2022-08-21T04:05:44;21.30;99.90
23957;DHT22;12165;45.458;11.062;2022-08-21T04:08:36;21.30;99.90
23957;DHT22;12165;45.458;11.062;2022-08-21T04:11:04;21.30;99.90
23957;DHT22;12165;45.458;11.062;2022-08-21T04:13:32;21.30;99.90
23957;DHT22;12165;45.458;11.062;2022-08-21T04:15:59;21.20;99.90
23957;DHT22;12165;45.458;11.062;2022-08-21T04:18:26;21.30;99.90
23957;DHT22;12165;45.458;11.062;2022-08-21T04:20:54;21.30;99.90
23957;DHT22;12165;45.458;11.062;2022-08-21T04:23:24;21.20;99.90
23957;DHT22;12165;45.458;11.062;2022-08-21T04:25:53;21.20;99.90
23957;DHT22;12165;45.458;11.062;2022-08-21T04:28:25;21.20;99.90
23957;DHT22;12165;45.458;11.062;2022-08-21T04:30:56;21.10;99.90
23957;DHT22;12165;45.458;11.062;2022-08-21T04:33:23;21.20;99.90
23957;DHT22;12165;45.458;11.062;2022-08-21T04:35:51;21.20;99.90
23957;DHT22;12165;45.458;11.062;2022-08-21T04:38:18;21.20;99.90
23957;DHT22;12165;45.458;11.062;2022-08-21T04:40:46;21.20;99.90
23957;DHT22;12165;45.458;11.062;2022-08-21T04:43:14;21.20;99.90
23957;DHT22;12165;45.458;11.062;2022-08-21T04:45:43;21.10;99.90
23957;DHT22;12165;45.458;11.062;2022-08-21T04:48:13;21.20;99.90
23957;DHT22;12165;45.458;11.062;2022-08-21T04:51:00;21.30;99.90
23957;DHT22;12165;45.458;11.062;2022-08-21T04:53:45;21.30;99.90
23957;DHT22;12165;45.458;11.062;2022-08-21T04:56:25;21.40;99.90
23957;DHT22;12165;45.458;11.062;2022-08-21T04:58:55;21.30;99.90
23957;DHT22;12165;45.458;11.062;2022-08-21T05:01:26;21.30;99.90
23957;DHT22;12165;45.458;11.062;2022-08-21T05:03:57;21.30;99.90
23957;DHT22;12165;45.458;11.062;2022-08-21T05:06:25;21.40;99.90
23957;DHT22;12165;45.458;11.062;2022-08-21T05:08:55;21.40;99.90
23957;DHT22;12165;45.458;11.062;2022-08-21T05:11:29;21.40;99.90
23957;DHT22;12165;45.458;11.062;2022-08-21T05:13:57;21.40;99.90
23957;DHT22;12165;45.458;11.062;2022-08-21T05:16:24;21.50;99.90
23957;DHT22;12165;45.458;11.062;2022-08-21T05:19:04;21.50;99.90
23957;DHT22;12165;45.458;11.062;2022-08-21T05:21:32;21.60;99.90
23957;DHT22;12165;45.458;11.062;2022-08-21T05:23:59;21.60;99.90
23957;DHT22;12165;45.458;11.062;2022-08-21T05:26:26;21.70;99.90
23957;DHT22;12165;45.458;11.062;2022-08-21T05:28:53;21.70;99.90
23957;DHT22;12165;45.458;11.062;2022-08-21T05:31:20;21.80;99.90
23957;DHT22;12165;45.458;11.062;2022-08-21T05:33:47;21.80;99.90
23957;DHT22;12165;45.458;11.062;2022-08-21T05:36:18;21.80;99.90
23957;DHT22;12165;45.458;11.062;2022-08-21T05:38:45;21.80;99.90
23957;DHT22;12165;45.458;11.062;2022-08-21T05:41:12;21.80;99.90
23957;DHT22;12165;45.458;11.062;2022-08-21T05:43:39;21.90;99.90
23957;DHT22;12165;45.458;11.062;2022-08-21T05:46:07;21.90;99.90
23957;DHT22;12165;45.458;11.062;2022-08-21T05:48:35;22.00;99.90
23957;DHT22;12165;45.458;11.062;2022-08-21T05:51:12;22.10;99.90
23957;DHT22;12165;45.458;11.062;2022-08-21T05:53:40;22.10;99.90
23957;DHT22;12165;45.458;11.062;2022-08-21T05:56:10;22.20;99.90
23957;DHT22;12165;45.458;11.062;2022-08-21T05:58:37;22.40;99.90
23957;DHT22;12165;45.458;11.062;2022-08-21T06:01:04;22.40;99.90
23957;DHT22;12165;45.458;11.062;2022-08-21T06:03:35;22.50;99.90
23957;DHT22;12165;45.458;11.062;2022-08-21T06:06:03;22.60;99.90
23957;DHT22;12165;45.458;11.062;2022-08-21T06:08:31;22.70;99.90
23957;DHT22;12165;45.458;11.062;2022-08-21T06:10:59;22.90;99.90
23957;DHT22;12165;45.458;11.062;2022-08-21T06:13:27;23.60;99.90
23957;DHT22;12165;45.458;11.062;2022-08-21T06:16:08;23.70;99.90
23957;DHT22;12165;45.458;11.062;2022-08-21T06:18:37;24.00;99.90
23957;DHT22;12165;45.458;11.062;2022-08-21T06:21:04;23.90;99.90
23957;DHT22;12165;45.458;11.062;2022-08-21T06:23:32;24.50;99.90
23957;DHT22;12165;45.458;11.062;2022-08-21T06:26:01;24.40;99.90
23957;DHT22;12165;45.458;11.062;2022-08-21T06:28:28;24.50;99.90
23957;DHT22;12165;45.458;11.062;2022-08-21T06:30:55;25.20;99.90
23957;DHT22;12165;45.458;11.062;2022-08-21T06:33:22;29.20;98.90
23957;DHT22;12165;45.458;11.062;2022-08-21T06:35:55;32.50;95.90
23957;DHT22;12165;45.458;11.062;2022-08-21T06:38:22;34.80;91.80
23957;DHT22;12165;45.458;11.062;2022-08-21T06:40:49;35.70;91.00
23957;DHT22;12165;45.458;11.062;2022-08-21T06:43:17;35.80;89.00
23957;DHT22;12165;45.458;11.062;2022-08-21T06:45:45;35.60;88.40
23957;DHT22;12165;45.458;11.062;2022-08-21T06:48:12;36.20;88.00
23957;DHT22;12165;45.458;11.062;2022-08-21T06:50:45;36.60;88.90
23957;DHT22;12165;45.458;11.062;2022-08-21T06:53:20;36.80;88.50
23957;DHT22;12165;45.458;11.062;2022-08-21T06:55:48;36.80;87.60
23957;DHT22;12165;45.458;11.062;2022-08-21T06:58:15;37.00;86.40
23957;DHT22;12165;45.458;11.062;2022-08-21T07:00:46;36.80;86.90
23957;DHT22;12165;45.458;11.062;2022-08-21T07:03:36;37.30;84.90
23957;DHT22;12165;45.458;11.062;2022-08-21T07:06:05;37.80;84.30
23957;DHT22;12165;45.458;11.062;2022-08-21T07:59:37;29.60;93.20
23957;DHT22;12165;45.458;11.062;2022-08-21T08:06:29;29.80;91.90
23957;DHT22;12165;45.458;11.062;2022-08-21T08:13:17;29.60;93.00
23957;DHT22;12165;45.458;11.062;2022-08-21T08:15:44;29.70;93.00
23957;DHT22;12165;45.458;11.062;2022-08-21T08:18:11;29.60;92.80
23957;DHT22;12165;45.458;11.062;2022-08-21T08:20:38;29.80;92.60
23957;DHT22;12165;45.458;11.062;2022-08-21T08:23:05;30.00;92.00
23957;DHT22;12165;45.458;11.062;2022-08-21T08:25:32;30.00;92.40
23957;DHT22;12165;45.458;11.062;2022-08-21T08:28:04;30.20;91.30
23957;DHT22;12165;45.458;11.062;2022-08-21T08:30:44;30.20;91.80
23957;DHT22;12165;45.458;11.062;2022-08-21T08:33:11;30.00;89.40
23957;DHT22;12165;45.458;11.062;2022-08-21T08:35:44;30.00;90.80
23957;DHT22;12165;45.458;11.062;2022-08-21T08:38:11;30.10;91.00
23957;DHT22;12165;45.458;11.062;2022-08-21T08:40:46;30.20;92.10
23957;DHT22;12165;45.458;11.062;2022-08-21T08:43:14;30.40;92.00
23957;DHT22;12165;45.458;11.062;2022-08-21T08:45:46;30.40;92.70
23957;DHT22;12165;45.458;11.062;2022-08-21T08:48:44;30.70;92.70
23957;DHT22;12165;45.458;11.062;2022-08-21T08:55:37;30.80;92.30
23957;DHT22;12165;45.458;11.062;2022-08-21T08:58:06;30.40;90.60
23957;DHT22;12165;45.458;11.062;2022-08-21T09:00:33;30.60;91.60
23957;DHT22;12165;45.458;11.062;2022-08-21T09:03:02;30.60;91.10
23957;DHT22;12165;45.458;11.062;2022-08-21T09:19:27;30.70;90.20
23957;DHT22;12165;45.458;11.062;2022-08-21T09:22:28;30.80;91.90
23957;DHT22;12165;45.458;11.062;2022-08-21T09:26:07;31.20;91.10
23957;DHT22;12165;45.458;11.062;2022-08-21T09:28:02;31.00;90.90
23957;DHT22;12165;45.458;11.062;2022-08-21T09:30:32;30.90;91.30
23957;DHT22;12165;45.458;11.062;2022-08-21T09:32:59;30.90;91.40
23957;DHT22;12165;45.458;11.062;2022-08-21T09:35:26;30.80;90.70
23957;DHT22;12165;45.458;11.062;2022-08-21T09:37:59;30.80;90.40
23957;DHT22;12165;45.458;11.062;2022-08-21T09:43:20;31.10;91.80
23957;DHT22;12165;45.458;11.062;2022-08-21T09:45:49;31.50;90.60
23957;DHT22;12165;45.458;11.062;2022-08-21T09:48:27;31.00;90.10
23957;DHT22;12165;45.458;11.062;2022-08-21T09:51:19;30.70;91.00
23957;DHT22;12165;45.458;11.062;2022-08-21T09:54:19;31.20;91.80
23957;DHT22;12165;45.458;11.062;2022-08-21T09:57:01;31.40;91.30
23957;DHT22;12165;45.458;11.062;2022-08-21T10:00:29;31.60;91.30
23957;DHT22;12165;45.458;11.062;2022-08-21T10:03:16;31.20;90.20
23957;DHT22;12165;45.458;11.062;2022-08-21T10:05:57;31.20;91.50
23957;DHT22;12165;45.458;11.062;2022-08-21T10:08:26;31.60;90.20
23957;DHT22;12165;45.458;11.062;2022-08-21T10:11:05;31.80;91.30
23957;DHT22;12165;45.458;11.062;2022-08-21T10:19:18;32.10;90.50
23957;DHT22;12165;45.458;11.062;2022-08-21T10:24:39;32.10;90.80
23957;DHT22;12165;45.458;11.062;2022-08-21T10:36:38;32.30;88.90
23957;DHT22;12165;45.458;11.062;2022-08-21T10:39:15;32.50;88.60
23957;DHT22;12165;45.458;11.062;2022-08-21T10:42:16;32.50;86.30
23957;DHT22;12165;45.458;11.062;2022-08-21T10:45:10;32.30;87.70
23957;DHT22;12165;45.458;11.062;2022-08-21T10:47:47;32.30;87.70
23957;DHT22;12165;45.458;11.062;2022-08-21T10:55:56;32.90;86.20
23957;DHT22;12165;45.458;11.062;2022-08-21T10:58:34;32.80;87.00
23957;DHT22;12165;45.458;11.062;2022-08-21T11:01:13;32.50;84.00
23957;DHT22;12165;45.458;11.062;2022-08-21T11:03:45;32.30;83.70
23957;DHT22;12165;45.458;11.062;2022-08-21T11:06:24;32.40;85.50
23957;DHT22;12165;45.458;11.062;2022-08-21T11:13:14;33.20;84.40
23957;DHT22;12165;45.458;11.062;2022-08-21T11:16:03;32.90;82.60
23957;DHT22;12165;45.458;11.062;2022-08-21T11:18:39;32.70;82.40
23957;DHT22;12165;45.458;11.062;2022-08-21T11:21:24;32.50;81.70
23957;DHT22;12165;45.458;11.062;2022-08-21T11:26:53;33.10;85.60
23957;DHT22;12165;45.458;11.062;2022-08-21T11:43:17;32.90;80.80
23957;DHT22;12165;45.458;11.062;2022-08-21T11:45:56;33.10;80.20
23957;DHT22;12165;45.458;11.062;2022-08-21T11:51:31;33.60;80.90
23957;DHT22;12165;45.458;11.062;2022-08-21T11:57:42;33.80;81.10
23957;DHT22;12165;45.458;11.062;2022-08-21T12:00:34;33.80;81.10
23957;DHT22;12165;45.458;11.062;2022-08-21T12:03:13;33.70;79.80
23957;DHT22;12165;45.458;11.062;2022-08-21T12:05:43;33.00;79.90
23957;DHT22;12165;45.458;11.062;2022-08-21T12:13:57;33.10;80.40
23957;DHT22;12165;45.458;11.062;2022-08-21T12:16:45;33.10;79.30
23957;DHT22;12165;45.458;11.062;2022-08-21T12:19:28;33.20;78.50
23957;DHT22;12165;45.458;11.062;2022-08-21T12:22:09;33.30;75.90
23957;DHT22;12165;45.458;11.062;2022-08-21T12:24:40;33.60;80.40
23957;DHT22;12165;45.458;11.062;2022-08-21T12:27:27;34.10;82.20
23957;DHT22;12165;45.458;11.062;2022-08-21T12:30:18;33.30;78.00
23957;DHT22;12165;45.458;11.062;2022-08-21T12:32:57;33.30;77.10
23957;DHT22;12165;45.458;11.062;2022-08-21T12:35:31;33.70;77.70
23957;DHT22;12165;45.458;11.062;2022-08-21T12:41:06;34.10;77.20
23957;DHT22;12165;45.458;11.062;2022-08-21T12:43:47;34.00;75.00
23957;DHT22;12165;45.458;11.062;2022-08-21T12:52:48;33.20;76.60
23957;DHT22;12165;45.458;11.062;2022-08-21T12:55:14;33.40;78.00
23957;DHT22;12165;45.458;11.062;2022-08-21T12:57:44;33.60;77.40
23957;DHT22;12165;45.458;11.062;2022-08-21T13:00:13;34.00;77.90
23957;DHT22;12165;45.458;11.062;2022-08-21T13:02:48;33.80;75.50
23957;DHT22;12165;45.458;11.062;2022-08-21T13:05:24;33.60;76.30
23957;DHT22;12165;45.458;11.062;2022-08-21T13:07:53;33.50;77.20
23957;DHT22;12165;45.458;11.062;2022-08-21T13:10:24;33.50;77.20
23957;DHT22;12165;45.458;11.062;2022-08-21T13:13:05;33.30;76.90
23957;DHT22;12165;45.458;11.062;2022-08-21T13:15:40;33.10;76.60
23957;DHT22;12165;45.458;11.062;2022-08-21T13:18:25;32.70;76.50
23957;DHT22;12165;45.458;11.062;2022-08-21T13:21:04;33.00;78.00
23957;DHT22;12165;45.458;11.062;2022-08-21T13:23:32;33.50;77.60
23957;DHT22;12165;45.458;11.062;2022-08-21T13:25:59;33.50;77.60
23957;DHT22;12165;45.458;11.062;2022-08-21T13:28:33;33.20;77.20
23957;DHT22;12165;45.458;11.062;2022-08-21T13:31:01;33.20;77.50
23957;DHT22;12165;45.458;11.062;2022-08-21T13:33:30;33.30;75.60
23957;DHT22;12165;45.458;11.062;2022-08-21T13:36:41;33.20;74.50
23957;DHT22;12165;45.458;11.062;2022-08-21T13:39:09;33.00;76.30
23957;DHT22;12165;45.458;11.062;2022-08-21T13:41:40;33.30;74.80
23957;DHT22;12165;45.458;11.062;2022-08-21T13:45:02;33.40;76.00
23957;DHT22;12165;45.458;11.062;2022-08-21T13:47:05;33.10;74.60
23957;DHT22;12165;45.458;11.062;2022-08-21T13:49:38;33.00;76.10
23957;DHT22;12165;45.458;11.062;2022-08-21T13:52:15;33.20;77.90
23957;DHT22;12165;45.458;11.062;2022-08-21T13:54:42;33.30;75.10
23957;DHT22;12165;45.458;11.062;2022-08-21T13:57:19;33.50;71.80
23957;DHT22;12165;45.458;11.062;2022-08-21T13:59:46;33.00;73.00
23957;DHT22;12165;45.458;11.062;2022-08-21T14:02:21;32.90;72.50
23957;DHT22;12165;45.458;11.062;2022-08-21T14:04:58;33.20;75.50
23957;DHT22;12165;45.458;11.062;2022-08-21T14:07:35;33.20;73.80
23957;DHT22;12165;45.458;11.062;2022-08-21T14:10:05;33.10;76.10
23957;DHT22;12165;45.458;11.062;2022-08-21T14:12:41;33.40;76.80
23957;DHT22;12165;45.458;11.062;2022-08-21T14:15:12;33.10;77.20
23957;DHT22;12165;45.458;11.062;2022-08-21T14:17:40;33.10;76.10
23957;DHT22;12165;45.458;11.062;2022-08-21T14:20:30;33.30;76.10
23957;DHT22;12165;45.458;11.062;2022-08-21T14:22:57;33.30;79.90
23957;DHT22;12165;45.458;11.062;2022-08-21T14:27:52;33.30;77.00
23957;DHT22;12165;45.458;11.062;2022-08-21T14:30:40;33.40;76.10
23957;DHT22;12165;45.458;11.062;2022-08-21T14:33:13;33.10;75.30
23957;DHT22;12165;45.458;11.062;2022-08-21T14:35:40;32.70;76.20
23957;DHT22;12165;45.458;11.062;2022-08-21T14:38:22;32.70;78.40
23957;DHT22;12165;45.458;11.062;2022-08-21T14:41:00;32.60;77.30
23957;DHT22;12165;45.458;11.062;2022-08-21T14:43:30;32.90;79.80
23957;DHT22;12165;45.458;11.062;2022-08-21T14:45:57;33.10;80.60
23957;DHT22;12165;45.458;11.062;2022-08-21T14:48:24;33.00;77.00
23957;DHT22;12165;45.458;11.062;2022-08-21T14:50:51;33.00;78.40
23957;DHT22;12165;45.458;11.062;2022-08-21T14:53:25;33.00;77.10
23957;DHT22;12165;45.458;11.062;2022-08-21T14:55:52;32.90;77.10
23957;DHT22;12165;45.458;11.062;2022-08-21T14:58:34;32.50;77.10
23957;DHT22;12165;45.458;11.062;2022-08-21T15:01:02;32.50;77.30
23957;DHT22;12165;45.458;11.062;2022-08-21T15:03:31;32.40;78.00
23957;DHT22;12165;45.458;11.062;2022-08-21T15:05:59;32.40;78.20
23957;DHT22;12165;45.458;11.062;2022-08-21T15:08:26;32.30;78.00
23957;DHT22;12165;45.458;11.062;2022-08-21T15:10:54;32.40;79.80
23957;DHT22;12165;45.458;11.062;2022-08-21T15:13:38;32.30;79.00
23957;DHT22;12165;45.458;11.062;2022-08-21T15:16:05;32.30;79.60
23957;DHT22;12165;45.458;11.062;2022-08-21T15:18:34;32.30;80.40
23957;DHT22;12165;45.458;11.062;2022-08-21T15:21:01;32.30;78.60
23957;DHT22;12165;45.458;11.062;2022-08-21T15:23:28;32.40;79.70
23957;DHT22;12165;45.458;11.062;2022-08-21T15:25:55;32.40;79.30
23957;DHT22;12165;45.458;11.062;2022-08-21T15:28:25;32.50;80.40
23957;DHT22;12165;45.458;11.062;2022-08-21T15:30:59;32.40;80.20
23957;DHT22;12165;45.458;11.062;2022-08-21T15:33:27;32.50;79.80
23957;DHT22;12165;45.458;11.062;2022-08-21T15:35:54;32.30;79.20
23957;DHT22;12165;45.458;11.062;2022-08-21T15:38:21;32.20;80.00
23957;DHT22;12165;45.458;11.062;2022-08-21T15:40:48;32.20;80.10
23957;DHT22;12165;45.458;11.062;2022-08-21T15:43:30;32.00;79.90
23957;DHT22;12165;45.458;11.062;2022-08-21T15:45:59;32.00;79.80
23957;DHT22;12165;45.458;11.062;2022-08-21T15:48:26;31.90;78.40
23957;DHT22;12165;45.458;11.062;2022-08-21T15:50:53;31.90;80.10
23957;DHT22;12165;45.458;11.062;2022-08-21T15:53:20;32.10;81.80
23957;DHT22;12165;45.458;11.062;2022-08-21T15:55:47;31.90;79.10
23957;DHT22;12165;45.458;11.062;2022-08-21T15:58:15;31.80;79.00
23957;DHT22;12165;45.458;11.062;2022-08-21T16:00:43;31.80;79.20
23957;DHT22;12165;45.458;11.062;2022-08-21T16:03:13;31.70;77.90
23957;DHT22;12165;45.458;11.062;2022-08-21T16:05:46;31.50;78.80
23957;DHT22;12165;45.458;11.062;2022-08-21T16:08:15;31.30;78.40
23957;DHT22;12165;45.458;11.062;2022-08-21T16:10:42;31.30;79.30
23957;DHT22;12165;45.458;11.062;2022-08-21T16:13:18;31.50;80.00
23957;DHT22;12165;45.458;11.062;2022-08-21T16:15:46;31.30;79.50
23957;DHT22;12165;45.458;11.062;2022-08-21T16:18:13;31.30;80.60
23957;DHT22;12165;45.458;11.062;2022-08-21T16:20:40;31.40;81.10
23957;DHT22;12165;45.458;11.062;2022-08-21T16:23:07;31.30;79.90
23957;DHT22;12165;45.458;11.062;2022-08-21T16:25:37;31.20;81.50
23957;DHT22;12165;45.458;11.062;2022-08-21T16:28:08;31.30;81.10
23957;DHT22;12165;45.458;11.062;2022-08-21T16:30:39;31.20;80.00
23957;DHT22;12165;45.458;11.062;2022-08-21T16:33:08;31.10;80.20
23957;DHT22;12165;45.458;11.062;2022-08-21T16:35:38;31.00;80.60
23957;DHT22;12165;45.458;11.062;2022-08-21T16:38:05;31.20;81.70
23957;DHT22;12165;45.458;11.062;2022-08-21T16:40:31;31.10;81.50
23957;DHT22;12165;45.458;11.062;2022-08-21T16:42:59;31.10;79.80
23957;DHT22;12165;45.458;11.062;2022-08-21T16:45:26;31.00;80.00
23957;DHT22;12165;45.458;11.062;2022-08-21T16:47:59;31.00;80.60
23957;DHT22;12165;45.458;11.062;2022-08-21T16:50:26;31.00;81.50
23957;DHT22;12165;45.458;11.062;2022-08-21T16:52:53;30.90;80.50
23957;DHT22;12165;45.458;11.062;2022-08-21T16:55:20;30.80;80.60
23957;DHT22;12165;45.458;11.062;2022-08-21T16:57:47;30.70;81.10
23957;DHT22;12165;45.458;11.062;2022-08-21T17:00:14;30.70;82.00
23957;DHT22;12165;45.458;11.062;2022-08-21T17:02:46;30.60;81.20
23957;DHT22;12165;45.458;11.062;2022-08-21T17:05:14;30.60;81.60
23957;DHT22;12165;45.458;11.062;2022-08-21T17:07:42;30.60;81.90
23957;DHT22;12165;45.458;11.062;2022-08-21T17:10:11;30.50;81.50
23957;DHT22;12165;45.458;11.062;2022-08-21T17:12:42;30.50;82.10
23957;DHT22;12165;45.458;11.062;2022-08-21T17:15:23;30.40;83.40
23957;DHT22;12165;45.458;11.062;2022-08-21T17:17:50;30.40;83.10
23957;DHT22;12165;45.458;11.062;2022-08-21T17:20:19;30.30;82.40
23957;DHT22;12165;45.458;11.062;2022-08-21T17:22:46;30.20;83.20
23957;DHT22;12165;45.458;11.062;2022-08-21T17:25:13;30.10;83.10
23957;DHT22;12165;45.458;11.062;2022-08-21T17:27:41;30.10;83.60
23957;DHT22;12165;45.458;11.062;2022-08-21T17:30:11;30.00;83.60
23957;DHT22;12165;45.458;11.062;2022-08-21T17:32:38;29.90;84.60
23957;DHT22;12165;45.458;11.062;2022-08-21T17:35:06;29.80;85.80
23957;DHT22;12165;45.458;11.062;2022-08-21T17:37:33;29.70;87.30
23957;DHT22;12165;45.458;11.062;2022-08-21T17:40:04;29.30;91.90
23957;DHT22;12165;45.458;11.062;2022-08-21T17:42:31;28.90;91.80
23957;DHT22;12165;45.458;11.062;2022-08-21T17:49:17;28.40;93.20
23957;DHT22;12165;45.458;11.062;2022-08-21T17:51:44;28.20;94.30
23957;DHT22;12165;45.458;11.062;2022-08-21T17:58:36;27.50;94.60
23957;DHT22;12165;45.458;11.062;2022-08-21T18:01:04;27.20;95.30
23957;DHT22;12165;45.458;11.062;2022-08-21T18:07:49;27.00;95.90
23957;DHT22;12165;45.458;11.062;2022-08-21T18:14:35;26.70;96.30
23957;DHT22;12165;45.458;11.062;2022-08-21T18:21:29;26.50;96.20
23957;DHT22;12165;45.458;11.062;2022-08-21T18:23:56;26.40;96.60
23957;DHT22;12165;45.458;11.062;2022-08-21T18:26:30;26.30;96.80
23957;DHT22;12165;45.458;11.062;2022-08-21T18:28:59;26.10;97.10
23957;DHT22;12165;45.458;11.062;2022-08-21T18:31:31;26.10;97.20
23957;DHT22;12165;45.458;11.062;2022-08-21T18:34:01;26.10;97.30
23957;DHT22;12165;45.458;11.062;2022-08-21T18:36:29;26.00;97.10